Conselheiro Pena, Brazil
Current Conditions -  °F | °C
As of 8:00 AM on Monday 20 Oct 2014 (Local Time) from SBVT Reporting Station
Clear Clear  
Wind Chill: 84°   Ceiling: Unl
Heat Index: 87°   Visibility: 6mi
Dew Point: 68°   Wind: 2mph
Humidity: 58%   Direction: 310°NW
Pressure: 29.94"   Gusts: NA
Location:  19.17°S, 41.47°W
Report Text: SBVT 201100Z 31002KT CAVOK 29/20 Q1014
Loading
Personal Weather Stations






























Interactive Weather Map
Tropical Storm Tracking
New forecast layout! Learn more

10-Day Weather Forecast

Advertisements
Track Severe Weather on mobile